Time;durP1;ratioP1;P1;durP2;ratioP2;P2;SDS_P1;SDS_P2;PMS_P1;PMS_P2;Temp;Humidity;BMP_temperature;BMP_pressure;BME280_temperature;BME280_humidity;BME280_pressure;Samples;Min_cycle;Max_cycle;Signal;HPM_P1;HPM_P2
2022/05/08 00:00:16;;;;;;;24.73;4.68;;;10.00;99.90;;;;;;4950169;28;20039;-89
2022/05/08 00:02:42;;;;;;;23.73;5.43;;;10.00;99.90;;;;;;4944365;28;20110;-89
2022/05/08 00:05:08;;;;;;;28.00;4.60;;;10.00;99.90;;;;;;4948316;28;20508;-88
2022/05/08 00:07:37;;;;;;;24.85;4.75;;;10.00;99.90;;;;;;4948241;28;20027;-88
2022/05/08 00:10:03;;;;;;;27.73;7.10;;;10.00;99.90;;;;;;4949701;28;20049;-89
2022/05/08 00:12:29;;;;;;;25.85;4.38;;;10.00;99.90;;;;;;4949898;28;20042;-90
2022/05/08 00:14:55;;;;;;;24.42;4.90;;;9.90;99.90;;;;;;4959007;28;20026;-89
2022/05/08 00:17:23;;;;;;;20.40;5.13;;;9.90;99.90;;;;;;4958799;28;20117;-89
2022/05/08 00:19:48;;;;;;;35.40;4.75;;;9.90;99.90;;;;;;4958516;28;20065;-90
2022/05/08 00:22:15;;;;;;;27.83;4.75;;;9.90;99.90;;;;;;4958554;28;20027;-89
2022/05/08 00:24:41;;;;;;;23.92;4.50;;;9.90;99.90;;;;;;4958761;28;20041;-89
2022/05/08 00:27:07;;;;;;;27.45;5.38;;;9.90;99.90;;;;;;4958668;28;20019;-90
2022/05/08 00:29:33;;;;;;;28.65;4.65;;;9.90;99.90;;;;;;4959034;28;20523;-89
2022/05/08 00:31:58;;;;;;;27.80;5.00;;;9.90;99.90;;;;;;4959097;28;20038;-89
2022/05/08 00:34:24;;;;;;;24.40;4.75;;;9.90;99.90;;;;;;4975978;28;20031;-89
2022/05/08 00:36:50;;;;;;;31.40;5.72;;;9.90;99.90;;;;;;4958471;28;20602;-89
2022/05/08 00:39:20;;;;;;;25.58;4.80;;;9.90;99.90;;;;;;4958762;28;20023;-91
2022/05/08 00:41:46;;;;;;;35.05;5.47;;;9.90;99.90;;;;;;4958776;28;20126;-90
2022/05/08 00:44:13;;;;;;;34.22;5.90;;;9.80;99.90;;;;;;4958817;28;20070;-90
2022/05/08 00:46:39;;;;;;;38.00;5.97;;;9.80;99.90;;;;;;4958500;28;20181;-89
2022/05/08 00:49:04;;;;;;;34.22;6.93;;;9.80;99.90;;;;;;4975107;28;20121;-88
2022/05/08 00:51:31;;;;;;;31.92;5.32;;;9.80;99.90;;;;;;4958494;28;20563;-87
2022/05/08 00:54:00;;;;;;;30.42;7.90;;;9.80;99.90;;;;;;4958505;28;20035;-89
2022/05/08 00:56:26;;;;;;;35.92;6.90;;;9.70;99.90;;;;;;4958523;28;20019;-88
2022/05/08 00:58:56;;;;;;;23.85;6.53;;;9.70;99.90;;;;;;4958603;28;20030;-89
2022/05/08 01:01:22;;;;;;;34.80;8.98;;;9.70;99.90;;;;;;4958324;28;20031;-88
2022/05/08 01:03:48;;;;;;;21.73;6.63;;;9.60;99.90;;;;;;4958708;28;20023;-88
2022/05/08 01:06:18;;;;;;;33.63;7.47;;;9.60;99.90;;;;;;4958428;28;20620;-91
2022/05/08 01:08:46;;;;;;;24.52;5.75;;;9.70;99.90;;;;;;4961122;28;20027;-88
2022/05/08 01:11:13;;;;;;;32.60;7.68;;;9.60;99.90;;;;;;4966638;28;20026;-88
2022/05/08 01:13:43;;;;;;;29.55;6.35;;;9.70;99.90;;;;;;4963614;28;20033;-88
2022/05/08 01:16:14;;;;;;;39.20;9.15;;;9.70;99.90;;;;;;4958714;28;20042;-89
2022/05/08 01:18:40;;;;;;;24.48;5.78;;;9.60;99.90;;;;;;4958019;28;20030;-90
2022/05/08 01:21:10;;;;;;;29.88;6.35;;;9.60;99.90;;;;;;4973869;28;20043;-88
2022/05/08 01:23:38;;;;;;;31.30;5.82;;;9.60;99.90;;;;;;4958193;28;20074;-89
2022/05/08 01:26:03;;;;;;;25.38;6.43;;;9.60;99.90;;;;;;4957951;28;20485;-88
2022/05/08 01:28:29;;;;;;;34.60;6.65;;;9.50;99.90;;;;;;4958316;28;20141;-89
2022/05/08 01:30:55;;;;;;;37.80;6.93;;;9.50;99.90;;;;;;4958175;28;20029;-89
2022/05/08 01:33:22;;;;;;;17.60;6.05;;;9.40;99.90;;;;;;4958001;28;20035;-88
2022/05/08 01:35:49;;;;;;;25.80;5.82;;;9.30;99.90;;;;;;4973692;28;20029;-87
2022/05/08 01:38:17;;;;;;;24.95;5.72;;;9.30;99.90;;;;;;4956750;28;20039;-90
2022/05/08 01:40:43;;;;;;;30.77;5.90;;;9.30;99.90;;;;;;4957702;28;20599;-89
2022/05/08 01:43:10;;;;;;;23.25;5.72;;;9.20;99.90;;;;;;4957817;28;20512;-88
2022/05/08 01:45:36;;;;;;;33.38;7.72;;;9.20;99.90;;;;;;4957692;28;20030;-90
2022/05/08 01:50:47;;;;;;;21.45;5.70;;;9.10;99.90;;;;;;4974330;28;20094;-87
2022/05/08 01:53:13;;;;;;;19.88;5.30;;;9.00;99.90;;;;;;4957320;28;20429;-87
2022/05/08 01:55:39;;;;;;;22.63;5.82;;;9.00;99.90;;;;;;4957084;28;20030;-87
2022/05/08 01:58:05;;;;;;;28.88;6.85;;;8.90;99.90;;;;;;4957159;28;20130;-88
2022/05/08 02:00:34;;;;;;;28.60;6.30;;;8.80;99.90;;;;;;4957051;28;20030;-91
2022/05/08 02:03:04;;;;;;;28.52;6.22;;;8.80;99.90;;;;;;4956941;28;20066;-87
2022/05/08 02:05:31;;;;;;;22.70;5.10;;;8.70;99.90;;;;;;4957919;28;20071;-87
2022/05/08 02:07:57;;;;;;;27.85;6.03;;;8.70;99.90;;;;;;4957459;28;20391;-88
2022/05/08 02:10:23;;;;;;;30.60;6.40;;;8.70;99.90;;;;;;4957037;28;20027;-87
2022/05/08 02:12:49;;;;;;;24.15;5.47;;;8.70;99.90;;;;;;4957185;28;20480;-88
2022/05/08 02:15:15;;;;;;;26.23;5.70;;;8.70;99.90;;;;;;4957207;28;20093;-88
2022/05/08 02:17:41;;;;;;;21.58;4.97;;;8.70;99.90;;;;;;4957193;28;20023;-88
2022/05/08 02:20:08;;;;;;;31.83;5.75;;;8.60;99.90;;;;;;4957192;28;20030;-89
2022/05/08 02:22:37;;;;;;;31.80;5.97;;;8.60;99.90;;;;;;4957048;28;20043;-89
2022/05/08 02:25:07;;;;;;;22.63;5.10;;;8.60;99.90;;;;;;4957175;28;20022;-88
2022/05/08 02:27:40;;;;;;;26.15;5.25;;;8.50;99.90;;;;;;4973736;28;20037;-88
2022/05/08 02:30:11;;;;;;;23.85;5.03;;;8.40;99.90;;;;;;4957291;28;20117;-88
2022/05/08 02:32:37;;;;;;;22.40;4.85;;;8.40;99.90;;;;;;4957202;28;20026;-88
2022/05/08 02:35:06;;;;;;;23.35;5.18;;;8.30;99.90;;;;;;4956922;28;20117;-87
2022/05/08 02:37:32;;;;;;;15.70;4.60;;;8.30;99.90;;;;;;4956824;28;20133;-87
2022/05/08 02:39:57;;;;;;;17.90;4.68;;;8.30;99.90;;;;;;4956738;28;20528;-87
2022/05/08 02:42:23;;;;;;;24.50;5.80;;;8.20;99.90;;;;;;4957271;28;20031;-88
2022/05/08 02:44:49;;;;;;;20.95;4.68;;;8.30;99.90;;;;;;4956751;28;20031;-88
2022/05/08 02:47:15;;;;;;;30.45;5.60;;;8.20;99.90;;;;;;4956738;28;20019;-88
2022/05/08 02:49:40;;;;;;;18.60;4.32;;;8.30;99.90;;;;;;4959701;28;20037;-88
2022/05/08 02:52:07;;;;;;;24.75;4.50;;;8.20;99.90;;;;;;4961164;28;20058;-88
2022/05/08 02:54:32;;;;;;;15.90;3.92;;;8.20;99.90;;;;;;4960958;28;20050;-88
2022/05/08 02:59:42;;;;;;;19.90;4.18;;;8.20;99.90;;;;;;4977864;28;20500;-90
2022/05/08 03:02:09;;;;;;;18.27;4.38;;;8.20;99.90;;;;;;4960475;28;20035;-89
2022/05/08 03:04:35;;;;;;;26.48;5.00;;;8.10;99.90;;;;;;4960630;28;20026;-90
2022/05/08 03:07:03;;;;;;;28.38;4.65;;;8.10;99.90;;;;;;4960855;28;20122;-90
2022/05/08 03:09:29;;;;;;;27.40;4.65;;;8.10;99.90;;;;;;4962156;28;20042;-89
2022/05/08 03:11:55;;;;;;;23.10;4.57;;;8.10;99.90;;;;;;4961484;28;20031;-90
2022/05/08 03:14:21;;;;;;;24.13;4.47;;;8.10;99.90;;;;;;4961751;28;20027;-89
2022/05/08 03:16:47;;;;;;;24.48;4.97;;;8.10;99.90;;;;;;4961778;28;20030;-88
2022/05/08 03:19:13;;;;;;;13.68;3.67;;;8.10;99.90;;;;;;4961614;28;20481;-88
2022/05/08 03:21:40;;;;;;;29.98;5.57;;;8.10;99.90;;;;;;4960130;28;20101;-89
2022/05/08 03:24:07;;;;;;;27.42;4.85;;;8.10;99.90;;;;;;4959752;28;20045;-88
2022/05/08 03:26:33;;;;;;;31.48;7.38;;;8.00;99.90;;;;;;4975817;28;20035;-89
2022/05/08 03:28:59;;;;;;;20.75;4.97;;;8.00;99.90;;;;;;4959246;28;20068;-89
2022/05/08 03:31:25;;;;;;;22.83;5.88;;;8.00;99.90;;;;;;4959278;28;20062;-88
2022/05/08 03:33:50;;;;;;;20.65;5.78;;;7.90;99.90;;;;;;4959511;28;20074;-89
2022/05/08 03:36:16;;;;;;;32.17;7.75;;;7.90;99.90;;;;;;4959936;28;20026;-90
2022/05/08 03:38:47;;;;;;;21.42;5.95;;;7.90;99.90;;;;;;4959817;28;20077;-90
2022/05/08 03:41:15;;;;;;;26.25;6.53;;;7.90;99.90;;;;;;4959848;28;20394;-89
2022/05/08 03:43:43;;;;;;;28.25;5.65;;;7.90;99.90;;;;;;4960018;28;20054;-90
2022/05/08 03:46:09;;;;;;;22.42;5.78;;;7.90;99.90;;;;;;4975425;28;20238;-90
2022/05/08 03:48:35;;;;;;;29.48;5.90;;;8.00;99.90;;;;;;4953820;28;20088;-88
2022/05/08 03:51:01;;;;;;;23.10;4.90;;;8.00;99.90;;;;;;4948105;28;20038;-89
2022/05/08 03:53:27;;;;;;;24.15;7.05;;;8.00;99.90;;;;;;4950530;28;20019;-89
2022/05/08 03:55:53;;;;;;;18.73;4.85;;;8.00;99.90;;;;;;4949470;28;20027;-89
2022/05/08 03:58:18;;;;;;;27.25;5.32;;;8.00;99.90;;;;;;4947369;28;20515;-89
2022/05/08 04:00:44;;;;;;;28.60;5.20;;;8.00;99.90;;;;;;4957580;28;20046;-89
2022/05/08 04:03:10;;;;;;;28.70;5.10;;;8.00;99.90;;;;;;4958709;28;20019;-89
2022/05/08 04:05:36;;;;;;;24.52;4.90;;;8.00;99.90;;;;;;4958393;28;20089;-89
2022/05/08 04:08:01;;;;;;;23.67;4.90;;;8.00;99.90;;;;;;4958546;28;20030;-89
2022/05/08 04:10:27;;;;;;;26.52;5.60;;;7.90;99.90;;;;;;4954763;28;20362;-89
2022/05/08 04:12:53;;;;;;;17.38;4.28;;;7.90;99.90;;;;;;4957804;28;20055;-88
2022/05/08 04:18:03;;;;;;;26.60;5.75;;;7.80;99.90;;;;;;4955718;29;20090;-90
2022/05/08 04:20:28;;;;;;;24.63;5.28;;;7.80;99.90;;;;;;4938362;29;20043;-89
2022/05/08 04:25:38;;;;;;;23.63;5.57;;;7.80;99.90;;;;;;4955331;29;20050;-90
2022/05/08 04:28:04;;;;;;;17.30;5.05;;;7.80;99.90;;;;;;4937968;29;20023;-88
2022/05/08 04:30:30;;;;;;;19.25;4.30;;;7.90;99.90;;;;;;4937937;29;20034;-89
2022/05/08 04:32:55;;;;;;;25.75;5.85;;;7.90;99.90;;;;;;4938104;29;20473;-89
2022/05/08 04:35:21;;;;;;;36.22;5.80;;;7.90;99.90;;;;;;4937632;29;20066;-88
2022/05/08 04:37:47;;;;;;;25.23;6.18;;;7.90;99.90;;;;;;4937322;29;20031;-88
2022/05/08 04:40:12;;;;;;;22.33;4.95;;;7.90;99.90;;;;;;4937664;29;20500;-89
2022/05/08 04:42:39;;;;;;;30.33;5.68;;;7.80;99.90;;;;;;4937196;29;20023;-89
2022/05/08 04:45:05;;;;;;;22.55;6.30;;;7.80;99.90;;;;;;4937731;29;20055;-88
2022/05/08 04:47:34;;;;;;;29.75;6.18;;;7.80;99.90;;;;;;4937586;29;20027;-90
2022/05/08 04:49:59;;;;;;;30.42;6.07;;;7.70;99.90;;;;;;4937562;29;20041;-88
2022/05/08 04:52:25;;;;;;;32.78;6.55;;;7.70;99.90;;;;;;4937816;29;20023;-89
2022/05/08 04:54:51;;;;;;;29.02;6.18;;;7.70;99.90;;;;;;4937497;29;20118;-89
2022/05/08 04:57:16;;;;;;;20.15;5.47;;;7.70;99.90;;;;;;4937716;29;20074;-89
2022/05/08 04:59:42;;;;;;;22.42;6.32;;;7.80;99.90;;;;;;4937805;29;20046;-88
2022/05/08 05:02:08;;;;;;;23.85;5.03;;;7.80;99.90;;;;;;4938037;29;20035;-89
2022/05/08 05:04:35;;;;;;;24.45;5.60;;;7.80;99.90;;;;;;4940509;29;20024;-89
2022/05/08 05:07:00;;;;;;;20.08;5.55;;;7.90;99.90;;;;;;4947790;29;20061;-89
2022/05/08 05:09:26;;;;;;;24.40;5.38;;;7.90;99.90;;;;;;4938421;29;20180;-90
2022/05/08 05:11:52;;;;;;;28.27;5.75;;;7.90;99.90;;;;;;4937616;29;20063;-89
2022/05/08 05:14:17;;;;;;;26.15;6.38;;;7.90;99.90;;;;;;4937570;29;20077;-89
2022/05/08 05:16:43;;;;;;;27.02;5.43;;;8.00;99.90;;;;;;4937480;29;20504;-89
2022/05/08 05:19:08;;;;;;;19.33;5.38;;;8.00;99.90;;;;;;4937311;29;20047;-89
2022/05/08 05:21:34;;;;;;;33.30;7.10;;;8.10;99.90;;;;;;4939596;29;20416;-90
2022/05/08 05:24:00;;;;;;;30.83;6.15;;;8.10;99.90;;;;;;4938645;29;20198;-89
2022/05/08 05:26:25;;;;;;;24.25;5.07;;;8.20;99.90;;;;;;4938686;29;20177;-89
2022/05/08 05:28:51;;;;;;;26.55;5.40;;;8.20;99.90;;;;;;4937184;29;20614;-87
2022/05/08 05:31:17;;;;;;;28.10;5.10;;;8.30;99.90;;;;;;4936705;29;20031;-87
2022/05/08 05:33:46;;;;;;;37.65;5.85;;;8.30;99.90;;;;;;4936966;29;20031;-89
2022/05/08 05:36:12;;;;;;;18.08;3.75;;;8.40;99.90;;;;;;4937081;29;20055;-89
2022/05/08 05:38:38;;;;;;;23.95;4.53;;;8.50;99.90;;;;;;4937096;29;20023;-88
2022/05/08 05:41:03;;;;;;;33.42;6.07;;;8.50;99.90;;;;;;4936682;29;20042;-90
2022/05/08 05:43:29;;;;;;;23.95;4.43;;;8.60;99.90;;;;;;4936746;29;20429;-88
2022/05/08 05:48:39;;;;;;;27.38;5.13;;;8.60;99.90;;;;;;4954525;29;20046;-88
2022/05/08 05:51:05;;;;;;;23.20;4.03;;;8.60;99.90;;;;;;4935101;29;20027;-88
2022/05/08 05:53:32;;;;;;;40.25;5.43;;;8.60;99.90;;;;;;4936631;29;20024;-87
2022/05/08 05:56:01;;;;;;;24.85;4.35;;;8.60;99.90;;;;;;4936222;29;20503;-88
2022/05/08 05:58:27;;;;;;;26.02;4.35;;;8.60;99.90;;;;;;4936519;29;20032;-88
2022/05/08 06:00:52;;;;;;;23.52;4.90;;;8.70;99.90;;;;;;4936115;29;20094;-88
2022/05/08 06:03:18;;;;;;;25.48;4.50;;;8.70;99.90;;;;;;4936465;29;20085;-88
2022/05/08 06:05:44;;;;;;;28.85;4.88;;;8.80;99.90;;;;;;4944897;29;20050;-86
2022/05/08 06:08:10;;;;;;;31.50;4.70;;;8.80;99.90;;;;;;4950335;29;20046;-88
2022/05/08 06:10:38;;;;;;;23.58;4.80;;;8.90;99.90;;;;;;4943075;28;20035;-87
2022/05/08 06:13:07;;;;;;;23.42;4.55;;;8.90;99.90;;;;;;4945032;28;20111;-88
2022/05/08 06:15:36;;;;;;;26.20;4.55;;;9.00;99.90;;;;;;4948880;28;20026;-87
2022/05/08 06:18:04;;;;;;;31.95;5.55;;;9.00;99.90;;;;;;4945438;28;20031;-88
2022/05/08 06:20:32;;;;;;;32.45;4.82;;;9.00;99.90;;;;;;4943658;28;20042;-88
2022/05/08 06:22:58;;;;;;;32.30;5.82;;;9.10;99.90;;;;;;4944385;28;20051;-88
2022/05/08 06:25:24;;;;;;;22.00;4.20;;;9.10;99.90;;;;;;4963687;28;20047;-88
2022/05/08 06:27:50;;;;;;;23.83;4.78;;;9.10;99.90;;;;;;4948728;28;20038;-89
2022/05/08 06:30:15;;;;;;;37.17;4.95;;;9.10;99.90;;;;;;4973681;28;20027;-88
2022/05/08 06:32:42;;;;;;;24.73;5.15;;;9.20;99.90;;;;;;4947429;28;20030;-88
2022/05/08 06:35:08;;;;;;;27.13;4.85;;;9.20;99.90;;;;;;4946114;28;20485;-88
2022/05/08 06:37:34;;;;;;;23.98;4.40;;;9.20;99.90;;;;;;4947612;28;20082;-89
2022/05/08 06:40:00;;;;;;;18.67;3.83;;;9.20;99.90;;;;;;4946972;28;20078;-88
2022/05/08 06:42:25;;;;;;;32.63;5.85;;;9.30;99.90;;;;;;4948861;28;20034;-89
2022/05/08 06:44:51;;;;;;;34.58;4.30;;;9.40;99.90;;;;;;4946144;28;20142;-88
2022/05/08 06:47:17;;;;;;;24.10;4.45;;;9.50;99.90;;;;;;4947374;28;20030;-88
2022/05/08 06:49:42;;;;;;;30.20;4.43;;;9.50;99.90;;;;;;4947585;28;20058;-88
2022/05/08 06:52:08;;;;;;;36.33;5.10;;;9.50;99.90;;;;;;4946175;28;20026;-88
2022/05/08 06:54:34;;;;;;;30.02;4.82;;;9.60;99.90;;;;;;4946669;28;20035;-87
2022/05/08 06:57:00;;;;;;;24.27;4.45;;;9.60;99.90;;;;;;4964597;28;20046;-87
2022/05/08 07:02:11;;;;;;;28.85;4.78;;;9.60;99.90;;;;;;4969915;28;20045;-86
2022/05/08 07:04:38;;;;;;;27.02;5.18;;;9.60;99.90;;;;;;4952727;28;20466;-87
2022/05/08 07:07:04;;;;;;;26.05;4.03;;;9.70;99.90;;;;;;4946893;28;20030;-87
2022/05/08 07:09:29;;;;;;;24.90;4.43;;;9.70;99.90;;;;;;4947393;28;20037;-87
2022/05/08 07:11:55;;;;;;;19.92;4.50;;;9.80;99.90;;;;;;4947795;28;20026;-88
2022/05/08 07:14:21;;;;;;;28.77;3.70;;;9.90;99.90;;;;;;4947840;28;20117;-90
2022/05/08 07:16:46;;;;;;;24.50;3.88;;;10.00;99.90;;;;;;4971986;28;20035;-88
2022/05/08 07:19:12;;;;;;;21.38;3.75;;;10.20;99.90;;;;;;4942271;29;20031;-88
2022/05/08 07:21:38;;;;;;;24.58;4.55;;;10.30;99.90;;;;;;4945799;28;20484;-87
2022/05/08 07:24:05;;;;;;;22.95;3.78;;;10.30;99.90;;;;;;4885390;28;1791949;-89
2022/05/08 07:26:31;;;;;;;23.80;3.58;;;10.30;99.90;;;;;;4972867;28;20070;-89
2022/05/08 07:28:57;;;;;;;19.77;4.13;;;10.20;99.90;;;;;;4948515;28;20229;-89
2022/05/08 07:31:24;;;;;;;30.33;4.85;;;10.30;99.90;;;;;;4948094;28;20038;-87
2022/05/08 07:36:12;;;;;;;32.60;4.40;;;10.30;99.90;;;;;;4963512;28;20031;-87
2022/05/08 07:36:36;;;;;;;22.55;4.50;;;10.30;99.90;;;;;;4965135;28;20030;-86
2022/05/08 07:39:02;;;;;;;25.55;4.60;;;10.30;99.90;;;;;;4948220;28;20030;-85
2022/05/08 07:41:29;;;;;;;19.45;4.00;;;10.40;99.90;;;;;;4945345;28;20083;-87
2022/05/08 07:43:54;;;;;;;24.02;3.80;;;10.40;99.90;;;;;;4948460;28;20101;-89
2022/05/08 07:46:20;;;;;;;28.48;4.72;;;10.50;99.90;;;;;;4945832;28;20647;-88
2022/05/08 07:48:46;;;;;;;22.58;4.60;;;10.50;99.90;;;;;;4948661;28;20154;-89
2022/05/08 07:51:11;;;;;;;24.95;4.38;;;10.60;99.90;;;;;;4945628;28;20496;-87
2022/05/08 07:53:37;;;;;;;24.73;3.88;;;10.60;99.90;;;;;;4947648;28;20352;-89
2022/05/08 07:56:03;;;;;;;24.73;4.38;;;10.60;99.90;;;;;;4947137;28;20019;-88
2022/05/08 07:58:32;;;;;;;28.15;4.50;;;10.70;99.90;;;;;;4946003;28;20190;-88
2022/05/08 08:00:58;;;;;;;26.88;4.43;;;10.70;99.90;;;;;;4946942;28;20038;-88
2022/05/08 08:03:26;;;;;;;23.55;3.95;;;10.70;99.90;;;;;;4947646;28;20019;-89
2022/05/08 08:05:53;;;;;;;21.40;3.95;;;10.80;99.90;;;;;;4946005;28;20035;-90
2022/05/08 08:08:21;;;;;;;28.63;4.95;;;10.90;99.90;;;;;;4946366;28;20400;-87
2022/05/08 08:10:47;;;;;;;25.17;4.97;;;10.90;99.90;;;;;;4946874;28;20473;-88
2022/05/08 08:13:13;;;;;;;25.17;4.88;;;10.90;99.90;;;;;;4945041;28;20027;-89
2022/05/08 08:15:41;;;;;;;24.55;4.53;;;10.90;99.90;;;;;;4946581;28;20030;-88
2022/05/08 08:18:07;;;;;;;32.25;4.82;;;11.00;99.90;;;;;;4944590;28;20523;-87
2022/05/08 08:20:32;;;;;;;23.95;4.90;;;11.20;99.90;;;;;;4971481;28;20035;-88
2022/05/08 08:22:58;;;;;;;21.52;4.38;;;11.20;99.90;;;;;;4946377;28;20526;-88
2022/05/08 08:25:24;;;;;;;25.70;4.53;;;11.20;99.90;;;;;;4946576;28;20039;-88
2022/05/08 08:27:50;;;;;;;19.10;3.72;;;11.30;99.90;;;;;;4945604;28;20118;-88
2022/05/08 08:30:16;;;;;;;22.80;4.45;;;11.30;99.90;;;;;;4951692;28;20062;-88
2022/05/08 08:32:41;;;;;;;19.83;5.20;;;11.30;99.90;;;;;;4947061;28;20725;-89
2022/05/08 08:35:08;;;;;;;20.27;4.47;;;11.30;99.90;;;;;;4944902;28;20033;-89
2022/05/08 08:37:33;;;;;;;26.48;4.65;;;11.50;99.90;;;;;;4966698;28;20067;-89
2022/05/08 08:39:59;;;;;;;22.80;3.97;;;11.60;99.90;;;;;;4945200;28;20081;-89
2022/05/08 08:42:30;;;;;;;24.80;4.53;;;11.70;99.90;;;;;;4945414;28;20038;-90
2022/05/08 08:47:53;;;;;;;26.45;3.58;;;11.90;99.90;;;;;;4960843;28;20854;-88
2022/05/08 08:50:25;;;;;;;16.23;3.67;;;12.00;99.90;;;;;;4948075;28;20027;-85
2022/05/08 08:52:53;;;;;;;22.08;3.97;;;12.10;99.90;;;;;;4944639;28;20035;-89
2022/05/08 08:55:20;;;;;;;23.77;4.88;;;12.20;99.90;;;;;;4946028;28;20496;-88
2022/05/08 08:57:46;;;;;;;20.20;3.65;;;12.30;99.90;;;;;;4947257;28;20014;-87
2022/05/08 09:00:13;;;;;;;30.15;4.90;;;12.40;99.90;;;;;;4948056;28;20038;-87
2022/05/08 09:02:39;;;;;;;21.77;4.07;;;12.40;99.90;;;;;;4945027;28;20019;-87
2022/05/08 09:05:10;;;;;;;17.63;3.40;;;12.50;99.90;;;;;;4944123;28;20081;-87
2022/05/08 09:07:43;;;;;;;25.88;4.20;;;12.70;99.90;;;;;;4948361;28;20033;-87
2022/05/08 09:10:18;;;;;;;18.83;4.15;;;12.80;99.90;;;;;;4946273;28;20045;-86
2022/05/08 09:13:03;;;;;;;20.38;5.03;;;12.90;99.90;;;;;;4962205;28;20047;-87
2022/05/08 09:15:31;;;;;;;12.68;3.47;;;13.00;99.90;;;;;;4945539;28;20031;-86
2022/05/08 09:18:08;;;;;;;25.27;5.25;;;13.10;99.90;;;;;;4945723;28;20027;-87
2022/05/08 09:20:44;;;;;;;22.88;4.18;;;13.30;99.90;;;;;;4945670;28;20117;-87
2022/05/08 09:23:28;;;;;;;20.35;3.90;;;13.30;99.90;;;;;;4960936;28;20454;-89
2022/05/08 09:25:57;;;;;;;21.73;3.45;;;13.40;99.90;;;;;;4946005;28;20026;-88
2022/05/08 09:28:44;;;;;;;24.73;3.90;;;13.50;99.90;;;;;;4942785;28;20125;-88
2022/05/08 09:31:12;;;;;;;21.08;4.38;;;13.70;99.90;;;;;;4956664;28;20125;-87
2022/05/08 09:33:44;;;;;;;21.90;3.83;;;13.70;99.90;;;;;;4945170;28;20031;-88
2022/05/08 09:36:21;;;;;;;19.40;3.58;;;13.90;99.90;;;;;;4942091;29;20031;-89
2022/05/08 09:39:18;;;;;;;25.30;4.82;;;14.00;99.90;;;;;;4953385;28;20026;-89
2022/05/08 09:41:44;;;;;;;15.65;3.17;;;14.10;99.90;;;;;;4948135;28;20097;-87
2022/05/08 09:44:18;;;;;;;21.48;3.97;;;14.20;99.90;;;;;;4955121;28;20038;-89
2022/05/08 09:46:48;;;;;;;15.23;3.42;;;14.30;99.90;;;;;;4960616;28;20041;-89
2022/05/08 09:49:19;;;;;;;18.38;3.38;;;14.30;99.90;;;;;;4962741;28;20118;-88
2022/05/08 09:51:46;;;;;;;17.90;3.90;;;14.30;99.80;;;;;;4963520;28;20026;-88
2022/05/08 09:54:14;;;;;;;21.58;3.30;;;14.30;99.60;;;;;;4963657;28;20023;-89
2022/05/08 09:56:42;;;;;;;19.88;5.57;;;14.30;99.60;;;;;;4956440;28;20035;-89
2022/05/08 09:59:10;;;;;;;16.95;3.45;;;14.40;99.30;;;;;;4965113;28;20110;-87
2022/05/08 10:01:38;;;;;;;23.30;3.65;;;14.60;98.90;;;;;;4967620;28;20034;-89
2022/05/08 10:04:07;;;;;;;18.70;4.32;;;14.70;98.00;;;;;;4965769;28;20018;-88
2022/05/08 10:06:41;;;;;;;19.63;3.55;;;14.70;97.50;;;;;;4968742;28;20105;-89
2022/05/08 10:14:49;;;;;;;18.40;3.25;;;15.30;96.30;;;;;;4985935;28;20053;-88
2022/05/08 10:17:27;;;;;;;18.40;3.60;;;15.40;95.70;;;;;;4969026;28;20037;-87
2022/05/08 10:19:52;;;;;;;18.13;3.47;;;15.60;95.60;;;;;;4970514;28;20026;-89
2022/05/08 10:22:22;;;;;;;16.23;3.30;;;15.80;95.10;;;;;;4969641;28;20530;-90
2022/05/08 10:24:57;;;;;;;11.43;2.40;;;15.90;94.70;;;;;;4968452;28;20114;-90
2022/05/08 10:27:31;;;;;;;14.38;2.60;;;16.10;93.80;;;;;;4968058;28;20034;-89
2022/05/08 10:29:56;;;;;;;18.35;3.22;;;16.20;93.00;;;;;;4968676;28;20066;-88
2022/05/08 10:32:30;;;;;;;11.93;2.60;;;16.20;92.40;;;;;;4966124;28;20058;-88
2022/05/08 10:35:23;;;;;;;12.85;2.75;;;16.40;92.40;;;;;;4970114;28;20062;-88
2022/05/08 10:38:16;;;;;;;12.98;2.80;;;16.50;91.60;;;;;;4968422;28;20030;-89
2022/05/08 10:40:42;;;;;;;16.63;3.08;;;16.40;91.20;;;;;;4966749;28;20034;-90
2022/05/08 10:43:14;;;;;;;17.48;3.28;;;16.50;91.20;;;;;;4969418;28;20416;-87
2022/05/08 10:45:43;;;;;;;16.55;3.10;;;16.50;90.70;;;;;;4971285;28;20547;-90
2022/05/08 10:48:18;;;;;;;17.17;2.72;;;16.60;90.40;;;;;;4969622;28;20440;-89
2022/05/08 10:50:52;;;;;;;11.32;2.50;;;16.70;90.40;;;;;;4977259;28;20039;-86
2022/05/08 10:53:30;;;;;;;30.63;5.05;;;16.90;90.30;;;;;;4969958;28;20045;-89
2022/05/08 10:56:02;;;;;;;20.60;3.90;;;17.00;89.30;;;;;;4966601;28;20114;-88
2022/05/08 10:58:28;;;;;;;15.95;3.13;;;17.10;90.00;;;;;;4965969;28;20077;-90
2022/05/08 11:00:59;;;;;;;18.80;3.28;;;17.30;88.90;;;;;;4966701;28;20063;-89
2022/05/08 11:03:25;;;;;;;13.45;3.90;;;17.60;88.20;;;;;;4965875;28;20459;-89
2022/05/08 11:05:52;;;;;;;19.83;3.63;;;17.70;87.10;;;;;;4968196;28;20427;-90
2022/05/08 11:08:29;;;;;;;15.73;3.30;;;17.80;85.80;;;;;;4967733;28;20038;-88
2022/05/08 11:11:02;;;;;;;20.27;3.40;;;17.90;85.20;;;;;;4966746;28;20029;-89
2022/05/08 11:13:39;;;;;;;15.65;3.10;;;18.10;84.80;;;;;;4966090;28;20022;-90
2022/05/08 11:16:08;;;;;;;14.63;2.90;;;18.10;83.90;;;;;;4964706;28;20030;-90
2022/05/08 11:18:34;;;;;;;17.40;3.53;;;18.10;83.40;;;;;;4966036;28;20050;-89
2022/05/08 11:21:03;;;;;;;15.80;2.60;;;18.20;83.70;;;;;;4965291;28;20519;-89
2022/05/08 11:23:31;;;;;;;14.40;2.25;;;18.40;82.50;;;;;;4964412;28;20046;-89
2022/05/08 11:26:00;;;;;;;13.80;3.22;;;18.40;81.50;;;;;;4965128;28;20026;-90
2022/05/08 11:28:27;;;;;;;14.45;2.75;;;18.20;81.10;;;;;;4967526;28;20038;-90
2022/05/08 11:36:31;;;;;;;14.38;2.92;;;18.30;82.50;;;;;;4996278;28;20041;-88
2022/05/08 11:39:00;;;;;;;11.45;2.55;;;18.50;81.50;;;;;;4995236;28;20123;-88
2022/05/08 11:41:33;;;;;;;9.93;2.70;;;18.60;80.60;;;;;;4996929;28;20034;-89
2022/05/08 11:44:15;;;;;;;12.52;3.25;;;18.70;80.00;;;;;;4984098;28;20088;-88
2022/05/08 11:46:51;;;;;;;11.98;3.30;;;18.80;78.80;;;;;;4993934;28;20033;-88
2022/05/08 11:49:30;;;;;;;14.93;2.80;;;18.70;78.30;;;;;;4994152;28;20065;-89
2022/05/08 11:51:58;;;;;;;12.63;2.85;;;18.80;78.60;;;;;;4986871;28;20030;-89
2022/05/08 11:54:30;;;;;;;13.30;2.78;;;18.90;78.20;;;;;;4996359;28;20079;-90
2022/05/08 11:57:16;;;;;;;9.40;2.58;;;19.10;77.40;;;;;;4997703;28;20054;-91
2022/05/08 12:00:04;;;;;;;19.10;3.05;;;19.10;76.80;;;;;;4995563;28;20496;-89
2022/05/08 12:02:46;;;;;;;8.15;2.20;;;19.00;76.60;;;;;;4984786;28;20062;-88
2022/05/08 12:05:17;;;;;;;16.10;3.15;;;18.90;76.50;;;;;;4986301;28;20076;-89
2022/05/08 12:07:47;;;;;;;9.30;2.30;;;18.90;76.60;;;;;;4985716;28;20038;-89
2022/05/08 12:10:13;;;;;;;12.18;2.60;;;19.20;76.80;;;;;;4996579;28;20468;-90
2022/05/08 12:12:42;;;;;;;17.60;2.63;;;19.40;76.00;;;;;;4987146;28;20018;-91
2022/05/08 12:15:10;;;;;;;10.38;2.20;;;19.60;75.60;;;;;;4986625;28;20030;-91
2022/05/08 12:17:42;;;;;;;9.02;2.08;;;19.70;74.50;;;;;;4985998;28;20038;-91
2022/05/08 12:20:14;;;;;;;12.27;2.28;;;19.70;73.90;;;;;;4994792;28;20022;-90
2022/05/08 12:22:41;;;;;;;11.63;2.70;;;19.50;73.40;;;;;;4985815;28;20116;-90
2022/05/08 12:25:07;;;;;;;7.95;2.30;;;19.30;73.10;;;;;;4986433;28;20026;-88
2022/05/08 12:27:34;;;;;;;10.75;2.50;;;19.10;73.50;;;;;;4989055;28;20031;-88
2022/05/08 12:30:01;;;;;;;14.82;2.60;;;18.90;74.10;;;;;;4986122;28;20030;-89
2022/05/08 12:32:27;;;;;;;9.00;2.00;;;18.90;74.40;;;;;;4985945;28;20018;-89
2022/05/08 12:34:54;;;;;;;8.30;2.75;;;18.80;74.20;;;;;;4984174;28;20128;-90
2022/05/08 12:37:21;;;;;;;11.45;2.28;;;18.70;74.40;;;;;;4986510;28;20089;-90
2022/05/08 12:39:47;;;;;;;9.23;2.50;;;18.60;74.50;;;;;;4988036;28;20034;-89
2022/05/08 12:42:16;;;;;;;11.68;2.67;;;18.60;74.90;;;;;;4989813;28;20073;-90
2022/05/08 12:44:43;;;;;;;8.70;2.63;;;18.50;74.90;;;;;;5003498;28;20077;-89
2022/05/08 12:47:10;;;;;;;10.77;2.50;;;18.50;75.30;;;;;;4989867;28;20022;-88
2022/05/08 12:49:37;;;;;;;9.80;2.20;;;18.50;75.10;;;;;;4986877;28;20084;-88
2022/05/08 12:52:05;;;;;;;9.13;2.20;;;18.50;74.60;;;;;;4986918;28;20483;-89
2022/05/08 12:54:42;;;;;;;11.18;2.45;;;18.60;74.80;;;;;;5000514;28;20153;-91
2022/05/08 12:59:42;;;;;;;6.65;2.33;;;18.70;74.50;;;;;;4986118;28;20024;-88
2022/05/08 12:59:59;;;;;;;;;;;18.90;74.20;;;;;;5000781;28;20121;-89
2022/05/08 13:02:26;;;;;;;11.60;2.25;;;19.20;73.50;;;;;;4987852;28;19964;-90
2022/05/08 13:04:53;;;;;;;9.18;2.40;;;19.50;72.90;;;;;;4985471;28;20018;-89
2022/05/08 13:07:19;;;;;;;7.25;2.38;;;19.60;72.20;;;;;;4995584;28;20081;-88
2022/05/08 13:09:44;;;;;;;9.35;2.40;;;19.70;72.10;;;;;;4983695;28;20030;-88
2022/05/08 13:12:11;;;;;;;7.90;2.20;;;19.80;71.40;;;;;;4983811;28;20376;-89
2022/05/08 13:14:36;;;;;;;11.38;2.20;;;19.80;71.20;;;;;;4984469;28;20033;-89
2022/05/08 13:17:03;;;;;;;6.35;2.17;;;19.80;71.50;;;;;;4984698;28;20038;-89